createdAt,value
2022-11-08T00:01:12.732Z,16.63
2022-11-08T00:03:38.999Z,14.60
2022-11-08T00:06:24.282Z,14.10
2022-11-08T00:09:09.371Z,13.45
2022-11-08T00:11:54.370Z,9.73
2022-11-08T00:14:20.631Z,13.80
2022-11-08T00:16:46.926Z,16.23
2022-11-08T00:19:13.231Z,18.45
2022-11-08T00:21:39.562Z,17.92
2022-11-08T00:24:06.128Z,13.75
2022-11-08T00:26:32.411Z,18.73
2022-11-08T00:28:58.909Z,15.07
2022-11-08T00:31:25.268Z,20.95
2022-11-08T00:33:51.518Z,13.20
2022-11-08T00:36:17.825Z,13.93
2022-11-08T00:38:44.249Z,13.95
2022-11-08T00:41:10.858Z,12.40
2022-11-08T00:43:37.148Z,13.63
2022-11-08T00:46:03.437Z,14.88
2022-11-08T00:48:29.704Z,10.20
2022-11-08T00:51:00.191Z,18.95
2022-11-08T00:53:26.524Z,13.32
2022-11-08T00:56:03.021Z,12.15
2022-11-08T00:58:29.575Z,16.38
2022-11-08T01:00:56.348Z,12.05
2022-11-08T01:03:23.899Z,15.50
2022-11-08T01:05:51.582Z,14.10
2022-11-08T01:08:18.816Z,18.92
2022-11-08T01:10:46.868Z,15.90
2022-11-08T01:13:13.564Z,16.92
2022-11-08T01:15:40.994Z,15.05
2022-11-08T01:18:08.095Z,18.25
2022-11-08T01:20:37.667Z,16.25
2022-11-08T01:23:03.969Z,16.52
2022-11-08T01:25:30.242Z,16.65
2022-11-08T01:27:56.708Z,15.25
2022-11-08T01:30:23.013Z,18.40
2022-11-08T01:32:49.308Z,14.60
2022-11-08T01:35:15.645Z,13.65
2022-11-08T01:37:41.917Z,20.02
2022-11-08T01:40:08.606Z,16.45
2022-11-08T01:42:34.878Z,26.33
2022-11-08T01:45:08.594Z,18.92
2022-11-08T01:47:35.032Z,17.13
2022-11-08T01:50:04.315Z,14.73
2022-11-08T01:52:35.280Z,20.00
2022-11-08T01:55:11.506Z,17.40
2022-11-08T01:57:37.781Z,19.88
2022-11-08T02:00:06.445Z,11.90
2022-11-08T02:02:34.669Z,20.02
2022-11-08T02:05:01.678Z,23.90
2022-11-08T02:07:30.759Z,16.67
2022-11-08T02:09:57.233Z,16.20
2022-11-08T02:12:24.921Z,18.83
2022-11-08T02:14:51.260Z,16.20
2022-11-08T02:17:17.631Z,16.52
2022-11-08T02:19:45.288Z,18.02
2022-11-08T02:22:28.988Z,18.10
2022-11-08T02:24:56.074Z,16.27
2022-11-08T02:27:22.366Z,20.33
2022-11-08T02:29:52.082Z,18.63
2022-11-08T02:32:18.371Z,15.65
2022-11-08T02:34:47.726Z,16.63
2022-11-08T02:37:14.616Z,19.55
2022-11-08T02:39:40.945Z,14.73
2022-11-08T02:42:07.220Z,14.65
2022-11-08T02:44:33.484Z,14.27
2022-11-08T02:46:59.754Z,13.43
2022-11-08T02:49:26.041Z,17.38
2022-11-08T02:51:52.834Z,26.70
2022-11-08T02:54:19.206Z,15.85
2022-11-08T02:56:45.486Z,22.00
2022-11-08T02:59:11.780Z,16.80
2022-11-08T03:01:38.206Z,16.38
2022-11-08T03:04:04.671Z,19.02
2022-11-08T03:06:30.966Z,19.25
2022-11-08T03:08:57.255Z,20.40
2022-11-08T03:11:23.532Z,17.27
2022-11-08T03:13:49.828Z,19.15
2022-11-08T03:16:16.115Z,19.08
2022-11-08T03:18:42.386Z,16.67
2022-11-08T03:21:08.665Z,20.33
2022-11-08T03:23:35.051Z,17.38
2022-11-08T03:26:04.807Z,19.52
2022-11-08T03:28:31.144Z,18.65
2022-11-08T03:30:57.688Z,16.55
2022-11-08T03:33:25.040Z,17.80
2022-11-08T03:35:52.121Z,25.08
2022-11-08T03:38:19.341Z,18.40
2022-11-08T03:40:46.257Z,21.30
2022-11-08T03:43:12.803Z,26.88
2022-11-08T03:45:39.142Z,24.58
2022-11-08T03:48:05.565Z,31.92
2022-11-08T03:50:31.835Z,29.13
2022-11-08T03:52:58.111Z,26.02
2022-11-08T03:55:25.875Z,28.33
2022-11-08T03:57:52.151Z,28.08
2022-11-08T04:00:19.818Z,24.63
2022-11-08T04:02:46.280Z,27.83
2022-11-08T04:05:13.138Z,33.85
2022-11-08T04:07:39.677Z,37.38
2022-11-08T04:10:07.087Z,32.92
2022-11-08T04:12:52.162Z,29.73
2022-11-08T04:15:20.137Z,37.33
2022-11-08T04:18:06.312Z,37.58
2022-11-08T04:20:51.300Z,29.13
2022-11-08T04:23:18.119Z,34.88
2022-11-08T04:25:45.040Z,32.67
2022-11-08T04:28:11.627Z,38.00
2022-11-08T04:30:37.929Z,34.08
2022-11-08T04:33:04.791Z,37.00
2022-11-08T04:35:31.604Z,41.88
2022-11-08T04:37:59.419Z,40.05
2022-11-08T04:40:26.184Z,41.58
2022-11-08T04:42:52.548Z,36.85
2022-11-08T04:45:18.861Z,33.88
2022-11-08T04:47:48.396Z,44.13
2022-11-08T04:50:15.456Z,45.13
2022-11-08T04:52:42.188Z,42.47
2022-11-08T04:55:08.745Z,47.90
2022-11-08T04:57:35.440Z,49.40
2022-11-08T05:00:01.867Z,43.67
2022-11-08T05:02:28.273Z,44.13
2022-11-08T05:04:54.638Z,40.22
2022-11-08T05:07:20.988Z,46.15
2022-11-08T05:09:47.252Z,35.95
2022-11-08T05:12:13.543Z,39.15
2022-11-08T05:14:39.803Z,36.95
2022-11-08T05:17:06.064Z,38.03
2022-11-08T05:19:51.118Z,39.20
2022-11-08T05:22:36.100Z,42.50
2022-11-08T05:25:02.366Z,43.30
2022-11-08T05:27:28.671Z,43.85
2022-11-08T05:29:54.938Z,41.58
2022-11-08T05:32:21.508Z,40.80
2022-11-08T05:34:47.837Z,47.53
2022-11-08T05:37:14.104Z,45.85
2022-11-08T05:39:40.392Z,51.88
2022-11-08T05:42:06.691Z,46.33
2022-11-08T05:44:32.973Z,47.60
2022-11-08T05:46:59.238Z,41.58
2022-11-08T05:49:25.533Z,33.55
2022-11-08T05:51:51.802Z,37.58
2022-11-08T05:54:18.071Z,40.65
2022-11-08T05:56:44.372Z,36.22
2022-11-08T05:59:10.689Z,44.78
2022-11-08T06:01:37.499Z,51.33
2022-11-08T06:04:03.833Z,35.88
2022-11-08T06:06:30.192Z,43.72
2022-11-08T06:08:56.508Z,37.70
2022-11-08T06:11:24.359Z,36.95
2022-11-08T06:13:51.408Z,34.38
2022-11-08T06:16:18.488Z,34.53
2022-11-08T06:18:44.776Z,35.22
2022-11-08T06:21:12.370Z,37.20
2022-11-08T06:23:39.036Z,41.95
2022-11-08T06:26:05.432Z,29.48
2022-11-08T06:28:31.843Z,32.85
2022-11-08T06:30:58.938Z,26.67
2022-11-08T06:33:25.302Z,27.45
2022-11-08T06:35:51.913Z,26.13
2022-11-08T06:38:18.179Z,27.65
2022-11-08T06:40:44.890Z,25.58
2022-11-08T06:43:16.408Z,27.92
2022-11-08T06:45:44.512Z,27.67
2022-11-08T06:48:10.814Z,28.65
2022-11-08T06:50:37.103Z,33.13
2022-11-08T06:53:07.756Z,23.27
2022-11-08T06:55:34.608Z,33.67
2022-11-08T06:58:01.244Z,25.10
2022-11-08T07:00:27.816Z,27.00
2022-11-08T07:02:56.291Z,22.02
2022-11-08T07:05:23.063Z,24.23
2022-11-08T07:07:52.032Z,26.60
2022-11-08T07:10:22.424Z,23.55
2022-11-08T07:12:50.700Z,20.10
2022-11-08T07:15:17.074Z,30.02
2022-11-08T07:17:43.361Z,19.17
2022-11-08T07:20:10.043Z,21.02
2022-11-08T07:22:36.378Z,20.70
2022-11-08T07:25:02.689Z,16.52
2022-11-08T07:27:30.000Z,15.85
2022-11-08T07:29:56.312Z,18.25
2022-11-08T07:32:22.690Z,16.63
2022-11-08T07:34:50.098Z,19.98
2022-11-08T07:37:16.400Z,15.43
2022-11-08T07:39:42.830Z,13.52
2022-11-08T07:42:09.191Z,12.88
2022-11-08T07:44:35.992Z,10.95
2022-11-08T07:47:02.345Z,15.50
2022-11-08T07:49:28.629Z,12.23
2022-11-08T07:51:55.018Z,14.05
2022-11-08T07:54:21.272Z,11.18
2022-11-08T07:56:47.599Z,11.20
2022-11-08T07:59:13.988Z,12.38
2022-11-08T08:01:40.309Z,7.97
2022-11-08T08:04:06.713Z,15.70
2022-11-08T08:06:32.959Z,11.18
2022-11-08T08:08:59.277Z,11.43
2022-11-08T08:11:30.890Z,13.75
2022-11-08T08:13:59.768Z,12.10
2022-11-08T08:16:26.105Z,9.40
2022-11-08T08:18:56.403Z,10.60
2022-11-08T08:21:23.284Z,17.67
2022-11-08T08:23:49.552Z,20.67
2022-11-08T08:26:15.839Z,10.23
2022-11-08T08:28:42.111Z,9.23
2022-11-08T08:31:08.424Z,7.15
2022-11-08T08:33:35.023Z,9.68
2022-11-08T08:36:01.724Z,10.15
2022-11-08T08:38:28.095Z,10.60
2022-11-08T08:40:54.451Z,7.72
2022-11-08T08:43:21.213Z,12.85
2022-11-08T08:45:48.697Z,8.90
2022-11-08T08:48:15.090Z,12.60
2022-11-08T08:50:41.489Z,13.45
2022-11-08T08:53:07.905Z,13.45
2022-11-08T08:55:35.379Z,9.02
2022-11-08T08:58:01.713Z,10.70
2022-11-08T09:03:14.523Z,11.90
2022-11-08T09:05:46.434Z,8.52
2022-11-08T09:08:14.187Z,9.25
2022-11-08T09:10:40.526Z,8.70
2022-11-08T09:13:06.904Z,7.82
2022-11-08T09:15:33.195Z,7.93
2022-11-08T09:17:59.593Z,10.05
2022-11-08T09:20:25.945Z,6.93
2022-11-08T09:22:52.229Z,9.90
2022-11-08T09:25:18.563Z,10.68
2022-11-08T09:27:44.835Z,7.22
2022-11-08T09:30:11.260Z,7.50
2022-11-08T09:32:59.770Z,6.70
2022-11-08T09:35:24.421Z,7.13
2022-11-08T09:37:52.954Z,8.90
2022-11-08T09:40:26.147Z,5.38
2022-11-08T09:42:52.406Z,7.80
2022-11-08T09:45:24.093Z,7.03
2022-11-08T09:47:55.201Z,8.25
2022-11-08T09:50:24.566Z,12.02
2022-11-08T09:52:57.558Z,6.78
2022-11-08T09:55:29.739Z,8.80
2022-11-08T09:58:12.931Z,9.82
2022-11-08T10:00:39.914Z,10.07
2022-11-08T10:03:09.028Z,8.73
2022-11-08T10:05:41.252Z,8.68
2022-11-08T10:08:21.232Z,9.68
2022-11-08T10:10:55.200Z,6.57
2022-11-08T10:16:09.207Z,8.40
2022-11-08T10:18:42.683Z,8.63
2022-11-08T10:21:14.972Z,7.65
2022-11-08T10:23:41.286Z,8.80
2022-11-08T10:26:12.564Z,8.88
2022-11-08T10:28:44.788Z,10.23
2022-11-08T10:31:12.849Z,8.55
2022-11-08T10:33:44.338Z,6.90
2022-11-08T10:36:17.948Z,7.90
2022-11-08T10:38:47.433Z,5.35
2022-11-08T10:41:19.834Z,7.50
2022-11-08T10:43:52.274Z,7.32
2022-11-08T10:46:38.468Z,7.57
2022-11-08T10:49:19.545Z,7.25
2022-11-08T10:51:46.883Z,6.30
2022-11-08T10:54:32.043Z,3.78
2022-11-08T10:56:58.320Z,6.55
2022-11-08T10:59:31.132Z,4.05
2022-11-08T11:01:57.702Z,6.72
2022-11-08T11:04:28.677Z,6.32
2022-11-08T11:06:55.078Z,7.68
2022-11-08T11:09:22.192Z,6.82
2022-11-08T11:11:56.266Z,4.82
2022-11-08T11:16:52.407Z,6.53
2022-11-08T11:19:18.693Z,5.55
2022-11-08T11:21:46.495Z,6.82
2022-11-08T11:24:19.408Z,4.72
2022-11-08T11:26:49.812Z,6.18
2022-11-08T11:29:16.280Z,6.32
2022-11-08T11:31:44.068Z,6.45
2022-11-08T11:34:16.445Z,6.72
2022-11-08T11:36:44.217Z,5.88
2022-11-08T11:39:15.652Z,7.22
2022-11-08T11:41:50.744Z,9.05
2022-11-08T11:44:35.773Z,7.10
2022-11-08T11:47:04.659Z,8.00
2022-11-08T11:49:31.441Z,5.68
2022-11-08T11:51:58.204Z,8.15
2022-11-08T11:54:28.297Z,5.70
2022-11-08T11:57:02.112Z,6.57
2022-11-08T11:59:34.787Z,8.52
2022-11-08T12:02:14.117Z,7.32
2022-11-08T12:04:59.491Z,6.80
2022-11-08T12:07:38.007Z,6.97
2022-11-08T12:10:04.323Z,8.60
2022-11-08T12:12:33.662Z,7.38
2022-11-08T12:15:02.117Z,7.22
2022-11-08T12:17:35.483Z,6.72
2022-11-08T12:20:25.699Z,6.60
2022-11-08T12:23:08.508Z,7.68
2022-11-08T12:25:45.192Z,9.05
2022-11-08T12:28:42.239Z,9.32
2022-11-08T12:31:17.901Z,7.43
2022-11-08T12:33:57.619Z,6.38
2022-11-08T12:36:27.559Z,8.15
2022-11-08T12:38:53.817Z,8.40
2022-11-08T12:41:20.237Z,9.50
2022-11-08T12:44:02.074Z,8.27
2022-11-08T12:46:29.568Z,9.07
2022-11-08T12:49:25.395Z,8.95
2022-11-08T12:51:58.911Z,7.47
2022-11-08T12:54:29.371Z,7.32
2022-11-08T12:56:57.888Z,6.80
2022-11-08T12:59:27.654Z,8.18
2022-11-08T13:01:54.935Z,6.82
2022-11-08T13:04:29.424Z,8.38
2022-11-08T13:06:56.199Z,7.78
2022-11-08T13:09:29.088Z,5.70
2022-11-08T13:12:01.940Z,8.68
2022-11-08T13:14:28.868Z,5.15
2022-11-08T13:17:13.859Z,6.65
2022-11-08T13:19:46.419Z,8.07
2022-11-08T13:22:47.596Z,7.78
2022-11-08T13:25:13.870Z,10.63
2022-11-08T13:27:44.056Z,8.68
2022-11-08T13:30:16.499Z,6.88
2022-11-08T13:32:42.812Z,6.38
2022-11-08T13:35:15.386Z,7.78
2022-11-08T13:38:00.539Z,9.82
2022-11-08T13:40:29.268Z,7.97
2022-11-08T13:43:15.845Z,5.78
2022-11-08T13:45:43.116Z,6.50
2022-11-08T13:48:35.864Z,6.85
2022-11-08T13:51:20.915Z,5.95
2022-11-08T13:53:49.704Z,6.30
2022-11-08T13:56:23.984Z,7.75
2022-11-08T13:58:50.408Z,9.20
2022-11-08T14:01:22.937Z,7.85
2022-11-08T14:03:53.473Z,8.07
2022-11-08T14:06:40.081Z,5.13
2022-11-08T14:09:16.937Z,7.15
2022-11-08T14:11:43.258Z,9.02
2022-11-08T14:14:17.727Z,5.55
2022-11-08T14:17:04.356Z,7.53
2022-11-08T14:19:31.586Z,5.22
2022-11-08T14:21:58.860Z,7.65
2022-11-08T14:24:29.655Z,4.88
2022-11-08T14:26:56.455Z,6.40
2022-11-08T14:29:23.881Z,7.20
2022-11-08T14:32:07.210Z,5.97
2022-11-08T14:34:37.726Z,4.20
2022-11-08T14:37:05.072Z,5.60
2022-11-08T14:39:33.143Z,6.82
2022-11-08T14:42:00.531Z,5.55
2022-11-08T14:44:27.268Z,4.70
2022-11-08T14:46:53.584Z,6.82
2022-11-08T14:49:30.118Z,5.65
2022-11-08T14:52:14.971Z,7.40
2022-11-08T14:54:43.347Z,9.02
2022-11-08T14:57:29.489Z,7.60
2022-11-08T14:59:56.893Z,9.20
2022-11-08T15:02:24.142Z,5.00
2022-11-08T15:04:50.515Z,7.35
2022-11-08T15:07:19.144Z,8.23
2022-11-08T15:09:45.667Z,6.80
2022-11-08T15:12:16.497Z,6.30
2022-11-08T15:14:48.559Z,8.55
2022-11-08T15:17:41.163Z,8.13
2022-11-08T15:20:18.177Z,6.68
2022-11-08T15:22:46.325Z,6.22
2022-11-08T15:25:22.286Z,6.68
2022-11-08T15:27:49.570Z,5.00
2022-11-08T15:30:20.451Z,4.63
2022-11-08T15:32:47.218Z,7.13
2022-11-08T15:35:25.661Z,5.93
2022-11-08T15:37:52.679Z,7.05
2022-11-08T15:40:30.532Z,6.20
2022-11-08T15:42:57.632Z,4.30
2022-11-08T15:45:26.021Z,8.77
2022-11-08T15:47:53.539Z,9.82
2022-11-08T15:50:29.616Z,4.97
2022-11-08T15:52:57.729Z,8.13
2022-11-08T15:55:25.757Z,5.25
2022-11-08T15:57:52.039Z,6.03
2022-11-08T16:00:22.103Z,10.05
2022-11-08T16:02:48.371Z,13.00
2022-11-08T16:05:19.338Z,10.70
2022-11-08T16:07:46.171Z,10.55
2022-11-08T16:10:13.048Z,11.68
2022-11-08T16:12:42.396Z,5.70
2022-11-08T16:15:13.375Z,9.80
2022-11-08T16:17:40.123Z,7.70
2022-11-08T16:20:17.921Z,9.93
2022-11-08T16:22:44.524Z,7.10
2022-11-08T16:25:11.120Z,7.28
2022-11-08T16:27:37.392Z,6.47
2022-11-08T16:30:05.891Z,7.32
2022-11-08T16:32:32.168Z,6.88
2022-11-08T16:34:58.492Z,11.82
2022-11-08T16:37:24.827Z,9.20
2022-11-08T16:39:51.124Z,13.48
2022-11-08T16:42:17.414Z,10.05
2022-11-08T16:44:44.304Z,9.70
2022-11-08T16:47:15.580Z,6.57
2022-11-08T16:49:41.903Z,14.45
2022-11-08T16:52:10.368Z,10.00
2022-11-08T16:54:36.640Z,8.48
2022-11-08T16:57:28.470Z,9.10
2022-11-08T16:59:49.231Z,5.53
2022-11-08T17:02:20.423Z,11.73
2022-11-08T17:04:46.712Z,34.70
2022-11-08T17:07:14.338Z,29.70
2022-11-08T17:09:40.816Z,37.25
2022-11-08T17:12:08.279Z,29.67
2022-11-08T17:14:34.594Z,20.70
2022-11-08T17:17:00.904Z,21.65
2022-11-08T17:19:27.229Z,13.93
2022-11-08T17:21:53.512Z,11.18
2022-11-08T17:24:21.940Z,9.93
2022-11-08T17:26:48.972Z,9.20
2022-11-08T17:29:15.249Z,13.10
2022-11-08T17:31:41.513Z,14.85
2022-11-08T17:34:07.776Z,14.60
2022-11-08T17:36:34.238Z,17.75
2022-11-08T17:39:00.522Z,13.05
2022-11-08T17:41:27.063Z,13.25
2022-11-08T17:43:53.350Z,8.95
2022-11-08T17:46:19.630Z,8.15
2022-11-08T17:48:45.922Z,8.70
2022-11-08T17:51:15.088Z,18.80
2022-11-08T17:53:41.870Z,11.30
2022-11-08T17:56:08.735Z,14.35
2022-11-08T17:58:35.347Z,18.23
2022-11-08T18:01:03.033Z,16.25
2022-11-08T18:03:29.368Z,13.18
2022-11-08T18:05:59.698Z,11.80
2022-11-08T18:08:27.395Z,9.13
2022-11-08T18:10:53.764Z,12.15
2022-11-08T18:13:20.925Z,13.15
2022-11-08T18:15:47.488Z,11.60
2022-11-08T18:18:13.760Z,15.52
2022-11-08T18:20:40.512Z,12.65
2022-11-08T18:23:06.825Z,11.27
2022-11-08T18:25:33.995Z,12.90
2022-11-08T18:28:00.284Z,11.27
2022-11-08T18:30:26.614Z,11.27
2022-11-08T18:32:52.979Z,10.15
2022-11-08T18:35:19.423Z,7.93
2022-11-08T18:37:45.700Z,7.57
2022-11-08T18:40:13.242Z,6.57
2022-11-08T18:42:39.504Z,9.32
2022-11-08T18:45:06.040Z,7.75
2022-11-08T18:47:33.180Z,7.38
2022-11-08T18:50:01.878Z,8.80
2022-11-08T18:52:28.809Z,7.90
2022-11-08T18:54:55.057Z,7.95
2022-11-08T18:57:22.208Z,10.88
2022-11-08T18:59:48.525Z,10.60
2022-11-08T19:02:14.975Z,9.90
2022-11-08T19:04:41.301Z,9.82
2022-11-08T19:07:07.628Z,7.20
2022-11-08T19:09:33.957Z,9.05
2022-11-08T19:12:05.499Z,10.35
2022-11-08T19:14:32.232Z,9.82
2022-11-08T19:16:58.478Z,7.78
2022-11-08T19:19:24.747Z,6.75
2022-11-08T19:21:51.007Z,11.25
2022-11-08T19:24:17.355Z,8.70
2022-11-08T19:26:43.607Z,7.25
2022-11-08T19:29:10.647Z,6.43
2022-11-08T19:31:36.937Z,6.40
2022-11-08T19:34:03.274Z,9.30
2022-11-08T19:36:29.968Z,6.63
2022-11-08T19:38:57.040Z,7.55
2022-11-08T19:41:24.484Z,11.02
2022-11-08T19:43:51.829Z,13.15
2022-11-08T19:46:22.298Z,10.07
2022-11-08T19:48:49.832Z,10.23
2022-11-08T19:51:17.167Z,10.60
2022-11-08T19:53:43.628Z,8.18
2022-11-08T19:56:11.927Z,9.93
2022-11-08T19:58:38.566Z,10.75
2022-11-08T20:01:13.232Z,9.82
2022-11-08T20:03:39.746Z,7.57
2022-11-08T20:06:06.548Z,10.35
2022-11-08T20:08:32.955Z,6.30
2022-11-08T20:10:59.229Z,6.30
2022-11-08T20:13:26.304Z,6.38
2022-11-08T20:15:53.139Z,11.48
2022-11-08T20:18:20.157Z,7.90
2022-11-08T20:20:46.887Z,6.65
2022-11-08T20:23:14.904Z,7.60
2022-11-08T20:25:41.249Z,8.20
2022-11-08T20:28:07.510Z,12.00
2022-11-08T20:30:34.540Z,10.10
2022-11-08T20:33:00.828Z,10.00
2022-11-08T20:35:27.104Z,8.25
2022-11-08T20:37:56.260Z,8.52
2022-11-08T20:40:22.569Z,9.77
2022-11-08T20:42:48.895Z,10.68
2022-11-08T20:45:15.514Z,6.95
2022-11-08T20:47:41.858Z,5.90
2022-11-08T20:50:10.594Z,8.07
2022-11-08T20:52:36.877Z,6.65
2022-11-08T20:55:03.199Z,8.32
2022-11-08T20:57:29.599Z,10.60
2022-11-08T20:59:55.930Z,10.07
2022-11-08T21:02:22.268Z,11.43
2022-11-08T21:04:48.628Z,12.00
2022-11-08T21:10:27.337Z,12.57
2022-11-08T21:12:48.632Z,8.73
2022-11-08T21:15:15.090Z,8.57
2022-11-08T21:17:41.361Z,10.57
2022-11-08T21:20:08.128Z,7.22
2022-11-08T21:22:34.513Z,8.43
2022-11-08T21:25:00.822Z,11.63
2022-11-08T21:27:29.741Z,9.30
2022-11-08T21:29:56.426Z,10.95
2022-11-08T21:32:22.678Z,8.88
2022-11-08T21:34:48.963Z,12.50
2022-11-08T21:37:15.378Z,7.38
2022-11-08T21:39:41.946Z,9.02
2022-11-08T21:42:08.251Z,8.93
2022-11-08T21:44:34.530Z,9.15
2022-11-08T21:47:00.822Z,8.98
2022-11-08T21:49:27.169Z,8.68
2022-11-08T21:51:53.472Z,7.38
2022-11-08T21:54:19.878Z,8.38
2022-11-08T21:56:46.139Z,9.65
2022-11-08T21:59:12.412Z,6.80
2022-11-08T22:01:38.694Z,5.68
2022-11-08T22:04:05.055Z,8.35
2022-11-08T22:06:31.385Z,10.05
2022-11-08T22:08:57.680Z,7.70
2022-11-08T22:11:24.144Z,8.13
2022-11-08T22:13:50.477Z,10.05
2022-11-08T22:16:16.751Z,8.57
2022-11-08T22:19:03.445Z,9.90
2022-11-08T22:21:38.624Z,8.00
2022-11-08T22:24:12.370Z,7.05
2022-11-08T22:26:39.658Z,13.10
2022-11-08T22:29:06.396Z,10.50
2022-11-08T22:31:32.687Z,10.27
2022-11-08T22:33:59.372Z,9.27
2022-11-08T22:36:25.633Z,9.27
2022-11-08T22:38:51.969Z,6.28
2022-11-08T22:41:19.152Z,10.65
2022-11-08T22:43:45.607Z,8.07
2022-11-08T22:46:12.159Z,8.43
2022-11-08T22:48:38.547Z,8.13
2022-11-08T22:51:04.902Z,6.85
2022-11-08T22:53:31.490Z,6.05
2022-11-08T22:55:57.841Z,7.07
2022-11-08T22:58:24.096Z,8.13
2022-11-08T23:00:50.490Z,9.43
2022-11-08T23:03:17.099Z,7.53
2022-11-08T23:05:47.968Z,9.23
2022-11-08T23:08:14.234Z,10.07
2022-11-08T23:11:09.555Z,12.40
2022-11-08T23:13:55.127Z,10.57
2022-11-08T23:16:37.527Z,13.20
2022-11-08T23:19:22.744Z,11.18
2022-11-08T23:22:07.833Z,10.70
2022-11-08T23:24:34.111Z,8.43
2022-11-08T23:27:19.181Z,8.52
2022-11-08T23:30:04.568Z,9.60
2022-11-08T23:32:31.296Z,8.43
2022-11-08T23:34:57.815Z,8.10
2022-11-08T23:37:24.340Z,9.73
2022-11-08T23:40:09.542Z,6.90
2022-11-08T23:42:54.669Z,10.68
2022-11-08T23:45:21.155Z,10.05
2022-11-08T23:47:47.484Z,7.97
2022-11-08T23:50:13.768Z,9.55
2022-11-08T23:52:40.125Z,12.30
2022-11-08T23:55:06.558Z,10.52
2022-11-08T23:57:32.836Z,7.00
2022-11-08T23:59:59.113Z,8.85
